createdAt,value
2023-03-19T00:02:17.002Z,6.40
2023-03-19T00:04:45.635Z,6.40
2023-03-19T00:07:12.343Z,6.40
2023-03-19T00:09:41.284Z,6.30
2023-03-19T00:12:09.427Z,6.30
2023-03-19T00:14:36.482Z,6.30
2023-03-19T00:17:03.540Z,6.30
2023-03-19T00:19:31.395Z,6.30
2023-03-19T00:21:58.925Z,6.30
2023-03-19T00:24:26.511Z,6.20
2023-03-19T00:26:53.350Z,6.20
2023-03-19T00:29:20.913Z,6.20
2023-03-19T00:31:47.961Z,6.20
2023-03-19T00:34:14.930Z,6.20
2023-03-19T00:36:42.739Z,6.10
2023-03-19T00:39:09.816Z,6.20
2023-03-19T00:41:37.119Z,6.00
2023-03-19T00:44:06.757Z,6.00
2023-03-19T00:46:33.761Z,6.00
2023-03-19T00:49:03.416Z,5.90
2023-03-19T00:51:31.505Z,5.90
2023-03-19T00:53:58.393Z,5.80
2023-03-19T00:56:25.085Z,5.80
2023-03-19T00:58:53.441Z,5.80
2023-03-19T01:01:20.228Z,5.70
2023-03-19T01:03:47.273Z,5.70
2023-03-19T01:06:14.022Z,5.70
2023-03-19T01:08:42.345Z,5.60
2023-03-19T01:11:12.379Z,5.60
2023-03-19T01:13:39.661Z,5.50
2023-03-19T01:16:08.180Z,5.50
2023-03-19T01:18:34.958Z,5.40
2023-03-19T01:21:05.368Z,5.40
2023-03-19T01:23:32.059Z,5.40
2023-03-19T01:26:01.321Z,5.30
2023-03-19T01:28:28.405Z,5.30
2023-03-19T01:30:59.179Z,5.30
2023-03-19T01:33:27.436Z,5.20
2023-03-19T01:35:59.424Z,5.10
2023-03-19T01:38:26.174Z,5.10
2023-03-19T01:40:53.318Z,5.00
2023-03-19T01:43:27.181Z,5.00
2023-03-19T01:46:01.254Z,5.00
2023-03-19T01:48:31.089Z,5.00
2023-03-19T01:50:58.110Z,5.10
2023-03-19T01:53:26.501Z,5.10
2023-03-19T01:55:54.863Z,5.10
2023-03-19T01:58:25.851Z,5.10
2023-03-19T02:00:54.144Z,5.10
2023-03-19T02:03:22.638Z,5.00
2023-03-19T02:05:52.404Z,5.00
2023-03-19T02:08:19.398Z,5.00
2023-03-19T02:10:49.036Z,4.90
2023-03-19T02:13:16.130Z,4.80
2023-03-19T02:15:46.557Z,4.80
2023-03-19T02:18:13.457Z,4.70
2023-03-19T02:20:58.503Z,4.70
2023-03-19T02:23:44.119Z,4.70
2023-03-19T02:26:17.318Z,4.60
2023-03-19T02:28:45.088Z,4.60
2023-03-19T02:31:12.159Z,4.50
2023-03-19T02:33:43.163Z,4.50
2023-03-19T02:36:11.476Z,4.50
2023-03-19T02:38:38.528Z,4.40
2023-03-19T02:41:06.327Z,4.40
2023-03-19T02:43:34.155Z,4.40
2023-03-19T02:46:03.224Z,4.40
2023-03-19T02:48:32.221Z,4.40
2023-03-19T02:50:59.047Z,4.40
2023-03-19T02:53:26.143Z,4.30
2023-03-19T02:55:53.293Z,4.30
2023-03-19T02:58:21.024Z,4.30
2023-03-19T03:00:47.851Z,4.40
2023-03-19T03:03:15.728Z,4.40
2023-03-19T03:05:42.779Z,4.40
2023-03-19T03:08:10.677Z,4.50
2023-03-19T03:10:37.578Z,4.50
2023-03-19T03:13:05.679Z,4.60
2023-03-19T03:15:36.706Z,4.60
2023-03-19T03:18:03.715Z,4.70
2023-03-19T03:20:30.941Z,4.70
2023-03-19T03:22:57.677Z,4.70
2023-03-19T03:25:26.538Z,4.60
2023-03-19T03:27:53.719Z,4.60
2023-03-19T03:30:20.520Z,4.50
2023-03-19T03:32:47.269Z,4.50
2023-03-19T03:35:15.953Z,4.50
2023-03-19T03:37:42.652Z,4.50
2023-03-19T03:40:10.006Z,4.40
2023-03-19T03:42:37.490Z,4.50
2023-03-19T03:45:04.943Z,4.50
2023-03-19T03:47:32.317Z,4.50
2023-03-19T03:49:59.149Z,4.50
2023-03-19T03:52:26.513Z,4.50
2023-03-19T03:54:54.685Z,4.50
2023-03-19T03:57:25.098Z,4.50
2023-03-19T03:59:52.088Z,4.60
2023-03-19T04:02:19.061Z,4.60
2023-03-19T04:04:46.535Z,4.60
2023-03-19T04:07:14.785Z,4.60
2023-03-19T04:09:42.511Z,4.60
2023-03-19T04:12:09.533Z,4.60
2023-03-19T04:14:38.014Z,4.60
2023-03-19T04:17:05.605Z,4.60
2023-03-19T04:19:35.445Z,4.60
2023-03-19T04:22:06.487Z,4.60
2023-03-19T04:24:33.493Z,4.60
2023-03-19T04:27:01.590Z,4.60
2023-03-19T04:29:29.207Z,4.50
2023-03-19T04:31:56.793Z,4.50
2023-03-19T04:34:26.132Z,4.50
2023-03-19T04:36:53.108Z,4.50
2023-03-19T04:39:20.833Z,4.50
2023-03-19T04:41:47.459Z,4.50
2023-03-19T04:44:14.110Z,4.50
2023-03-19T04:46:40.864Z,4.50
2023-03-19T04:49:08.187Z,4.40
2023-03-19T04:51:35.523Z,4.40
2023-03-19T04:54:02.205Z,4.40
2023-03-19T04:56:28.949Z,4.40
2023-03-19T04:58:55.869Z,4.40
2023-03-19T05:01:23.041Z,4.30
2023-03-19T05:03:49.886Z,4.30
2023-03-19T05:06:17.400Z,4.40
2023-03-19T05:08:44.118Z,4.30
2023-03-19T05:11:10.751Z,4.30
2023-03-19T05:13:37.466Z,4.40
2023-03-19T05:16:04.914Z,4.40
2023-03-19T05:18:31.653Z,4.50
2023-03-19T05:20:58.663Z,4.60
2023-03-19T05:23:25.423Z,4.60
2023-03-19T05:25:53.436Z,4.70
2023-03-19T05:28:20.565Z,4.80
2023-03-19T05:30:48.120Z,4.90
2023-03-19T05:33:14.974Z,5.00
2023-03-19T05:35:41.800Z,5.20
2023-03-19T05:38:12.486Z,5.10
2023-03-19T05:40:41.988Z,5.20
2023-03-19T05:43:09.959Z,5.30
2023-03-19T05:45:39.869Z,5.30
2023-03-19T05:48:07.028Z,5.50
2023-03-19T05:50:35.109Z,5.80
2023-03-19T05:53:03.424Z,6.10
2023-03-19T05:55:30.564Z,6.50
2023-03-19T05:57:57.971Z,6.80
2023-03-19T06:00:24.690Z,7.10
2023-03-19T06:02:51.672Z,7.20
2023-03-19T06:05:18.480Z,7.40
2023-03-19T06:07:45.331Z,7.50
2023-03-19T06:10:11.987Z,7.60
2023-03-19T06:12:39.223Z,7.70
2023-03-19T06:15:07.083Z,7.80
2023-03-19T06:17:33.847Z,7.90
2023-03-19T06:20:00.515Z,8.10
2023-03-19T06:22:27.274Z,8.30
2023-03-19T06:24:54.465Z,8.50
2023-03-19T06:27:26.057Z,8.60
2023-03-19T06:29:53.048Z,8.70
2023-03-19T06:32:19.722Z,8.90
2023-03-19T06:34:47.129Z,9.20
2023-03-19T06:37:14.233Z,9.60
2023-03-19T06:39:40.858Z,9.90
2023-03-19T06:42:07.695Z,10.10
2023-03-19T06:44:34.669Z,10.20
2023-03-19T06:47:02.220Z,10.40
2023-03-19T06:49:30.529Z,10.50
2023-03-19T06:51:57.536Z,10.80
2023-03-19T06:54:24.277Z,10.90
2023-03-19T06:56:55.811Z,10.80
2023-03-19T06:59:24.084Z,10.70
2023-03-19T07:01:50.932Z,10.80
2023-03-19T07:04:18.904Z,10.80
2023-03-19T07:06:45.672Z,10.70
2023-03-19T07:09:12.400Z,10.80
2023-03-19T07:11:41.070Z,10.80
2023-03-19T07:14:07.669Z,10.80
2023-03-19T07:16:34.737Z,11.00
2023-03-19T07:19:05.194Z,11.20
2023-03-19T07:21:32.056Z,11.30
2023-03-19T07:23:58.838Z,11.50
2023-03-19T07:26:25.892Z,11.70
2023-03-19T07:28:53.498Z,11.90
2023-03-19T07:31:20.294Z,12.10
2023-03-19T07:33:47.502Z,12.20
2023-03-19T07:36:14.989Z,12.10
2023-03-19T07:38:44.099Z,12.00
2023-03-19T07:41:15.710Z,12.00
2023-03-19T07:43:42.329Z,12.10
2023-03-19T07:46:09.136Z,12.20
2023-03-19T07:48:35.954Z,12.50
2023-03-19T07:51:02.715Z,12.80
2023-03-19T07:53:29.392Z,13.00
2023-03-19T07:55:56.182Z,13.10
2023-03-19T07:58:22.817Z,13.10
2023-03-19T08:00:49.522Z,13.10
2023-03-19T08:03:16.554Z,13.10
2023-03-19T08:05:43.566Z,13.10
2023-03-19T08:08:10.663Z,13.10
2023-03-19T08:10:38.475Z,13.00
2023-03-19T08:13:06.879Z,12.70
2023-03-19T08:15:33.918Z,12.60
2023-03-19T08:18:00.895Z,12.40
2023-03-19T08:20:27.751Z,12.40
2023-03-19T08:22:54.461Z,12.20
2023-03-19T08:25:23.394Z,12.20
2023-03-19T08:27:50.487Z,12.00
2023-03-19T08:30:17.624Z,11.90
2023-03-19T08:32:47.136Z,11.90
2023-03-19T08:35:14.347Z,12.00
2023-03-19T08:37:41.070Z,12.10
2023-03-19T08:40:17.588Z,12.30
2023-03-19T08:42:46.888Z,12.40
2023-03-19T08:58:50.881Z,12.20
2023-03-19T09:01:17.604Z,12.00
2023-03-19T09:03:45.376Z,12.10
2023-03-19T09:06:24.140Z,12.20
2023-03-19T09:16:56.381Z,12.10
2023-03-19T09:35:38.698Z,12.70
2023-03-19T09:47:17.259Z,12.70
2023-03-19T09:56:01.093Z,12.90
2023-03-19T10:36:37.776Z,14.90
2023-03-19T12:24:36.983Z,13.90
2023-03-19T12:54:26.135Z,14.20
2023-03-19T12:59:57.686Z,14.20
2023-03-19T13:02:24.820Z,14.30
2023-03-19T13:05:23.369Z,14.40
2023-03-19T13:07:53.155Z,14.40
2023-03-19T13:10:20.351Z,14.40
2023-03-19T13:12:48.341Z,14.20
2023-03-19T13:15:25.371Z,14.10
2023-03-19T13:18:12.142Z,14.10
2023-03-19T13:20:51.075Z,14.10
2023-03-19T13:23:22.107Z,14.10
2023-03-19T13:25:49.470Z,14.10
2023-03-19T13:28:35.367Z,14.10
2023-03-19T13:31:06.078Z,14.10
2023-03-19T13:33:36.025Z,14.20
2023-03-19T13:36:05.185Z,14.40
2023-03-19T13:38:33.608Z,14.50
2023-03-19T13:41:00.340Z,14.50
2023-03-19T13:43:30.287Z,14.50
2023-03-19T13:46:14.786Z,14.40
2023-03-19T13:48:51.606Z,14.50
2023-03-19T13:51:18.272Z,14.40
2023-03-19T13:54:00.419Z,14.40
2023-03-19T13:56:30.804Z,14.30
2023-03-19T13:59:15.826Z,14.30
2023-03-19T14:01:47.305Z,14.30
2023-03-19T14:04:14.320Z,14.20
2023-03-19T14:06:41.218Z,14.20
2023-03-19T14:09:31.439Z,14.30
2023-03-19T14:12:16.547Z,14.30
2023-03-19T14:14:44.370Z,14.30
2023-03-19T14:17:19.598Z,14.30
2023-03-19T14:19:46.839Z,14.20
2023-03-19T14:22:16.442Z,14.30
2023-03-19T14:24:56.903Z,14.20
2023-03-19T14:27:33.992Z,14.30
2023-03-19T14:30:02.381Z,14.20
2023-03-19T14:32:32.345Z,14.20
2023-03-19T14:34:59.478Z,14.20
2023-03-19T14:37:36.823Z,14.20
2023-03-19T14:40:04.618Z,14.30
2023-03-19T14:42:34.224Z,14.40
2023-03-19T14:45:12.784Z,14.30
2023-03-19T14:47:59.945Z,14.40
2023-03-19T14:50:47.168Z,14.30
2023-03-19T14:53:15.064Z,14.40
2023-03-19T14:55:42.077Z,14.50
2023-03-19T14:58:10.320Z,14.50
2023-03-19T15:00:41.066Z,14.40
2023-03-19T15:03:13.824Z,14.40
2023-03-19T15:05:41.327Z,14.40
2023-03-19T15:08:11.157Z,14.30
2023-03-19T15:10:53.530Z,14.30
2023-03-19T15:13:39.135Z,14.30
2023-03-19T15:16:09.908Z,14.30
2023-03-19T15:18:36.951Z,14.30
2023-03-19T15:21:03.782Z,14.30
2023-03-19T15:23:31.330Z,14.20
2023-03-19T15:26:02.176Z,14.10
2023-03-19T15:28:29.818Z,14.10
2023-03-19T15:31:08.583Z,14.00
2023-03-19T15:33:43.384Z,13.90
2023-03-19T15:36:19.619Z,13.90
2023-03-19T15:38:48.417Z,13.80
2023-03-19T15:41:18.355Z,13.80
2023-03-19T15:43:46.700Z,13.70
2023-03-19T15:46:14.595Z,13.70
2023-03-19T15:48:43.001Z,13.60
2023-03-19T15:51:09.980Z,13.60
2023-03-19T15:53:36.871Z,13.60
2023-03-19T15:56:03.802Z,13.50
2023-03-19T15:58:33.056Z,13.50
2023-03-19T16:00:59.840Z,13.50
2023-03-19T16:03:27.918Z,13.50
2023-03-19T16:06:11.357Z,13.50
2023-03-19T16:08:40.492Z,13.40
2023-03-19T16:11:14.356Z,13.30
2023-03-19T16:13:41.663Z,13.30
2023-03-19T16:16:08.925Z,13.20
2023-03-19T16:18:42.520Z,13.20
2023-03-19T16:21:11.466Z,13.20
2023-03-19T16:23:40.648Z,13.10
2023-03-19T16:26:26.907Z,13.10
2023-03-19T16:28:56.801Z,13.00
2023-03-19T16:31:29.102Z,12.90
2023-03-19T16:33:59.321Z,12.90
2023-03-19T16:36:30.462Z,12.80
2023-03-19T16:39:17.993Z,12.80
2023-03-19T16:41:46.044Z,12.70
2023-03-19T16:44:21.925Z,12.60
2023-03-19T16:46:48.742Z,12.60
2023-03-19T16:49:18.329Z,12.50
2023-03-19T16:51:46.239Z,12.50
2023-03-19T16:54:12.897Z,12.40
2023-03-19T16:56:39.677Z,12.40
2023-03-19T16:59:06.844Z,12.30
2023-03-19T17:01:34.645Z,12.20
2023-03-19T17:04:01.731Z,12.10
2023-03-19T17:06:31.620Z,12.10
2023-03-19T17:08:58.540Z,12.00
2023-03-19T17:11:28.919Z,11.90
2023-03-19T17:13:56.426Z,11.90
2023-03-19T17:16:23.433Z,11.80
2023-03-19T17:18:50.497Z,11.70
2023-03-19T17:21:21.915Z,11.60
2023-03-19T17:23:49.169Z,11.60
2023-03-19T17:26:20.460Z,11.50
2023-03-19T17:28:47.359Z,11.50
2023-03-19T17:31:48.556Z,11.30
2023-03-19T17:34:18.696Z,11.30
2023-03-19T17:36:48.498Z,11.20
2023-03-19T17:39:19.665Z,11.20
2023-03-19T17:41:46.294Z,11.10
2023-03-19T17:44:14.800Z,11.00
2023-03-19T17:46:45.093Z,10.90
2023-03-19T17:49:16.753Z,10.90
2023-03-19T17:51:43.568Z,10.90
2023-03-19T17:54:12.317Z,10.80
2023-03-19T17:56:39.513Z,10.70
2023-03-19T17:59:08.541Z,10.70
2023-03-19T18:01:35.196Z,10.60
2023-03-19T18:04:02.329Z,10.50
2023-03-19T18:06:31.447Z,10.50
2023-03-19T18:08:58.143Z,10.50
2023-03-19T18:11:24.825Z,10.40
2023-03-19T18:13:53.407Z,10.40
2023-03-19T18:16:28.338Z,10.40
2023-03-19T18:18:56.011Z,10.40
2023-03-19T18:21:22.765Z,10.40
2023-03-19T18:23:50.301Z,10.40
2023-03-19T18:26:17.228Z,10.40
2023-03-19T18:28:47.876Z,10.30
2023-03-19T18:31:18.908Z,10.30
2023-03-19T18:33:46.948Z,10.20
2023-03-19T18:36:17.636Z,10.20
2023-03-19T18:38:46.575Z,10.20
2023-03-19T18:41:17.345Z,10.20
2023-03-19T18:43:44.031Z,10.20
2023-03-19T18:46:14.549Z,10.10
2023-03-19T18:48:47.225Z,10.10
2023-03-19T18:51:13.982Z,10.00
2023-03-19T18:53:41.305Z,10.00
2023-03-19T18:56:24.666Z,10.00
2023-03-19T18:58:53.485Z,10.00
2023-03-19T19:01:20.474Z,10.00
2023-03-19T19:03:48.429Z,10.00
2023-03-19T19:06:40.078Z,10.00
2023-03-19T19:09:13.773Z,10.00
2023-03-19T19:11:40.807Z,10.00
2023-03-19T19:14:14.322Z,9.90
2023-03-19T19:16:43.791Z,9.80
2023-03-19T19:19:16.260Z,9.90
2023-03-19T19:21:44.577Z,9.80
2023-03-19T19:24:21.500Z,9.70
2023-03-19T19:26:51.665Z,9.70
2023-03-19T19:29:23.679Z,9.70
2023-03-19T19:31:52.336Z,9.60
2023-03-19T19:34:20.068Z,9.60
2023-03-19T19:36:46.720Z,9.60
2023-03-19T19:39:13.759Z,9.60
2023-03-19T21:34:58.106Z,7.70
2023-03-19T21:37:27.475Z,7.80
2023-03-19T21:39:55.694Z,7.70
2023-03-19T21:42:22.791Z,7.70
2023-03-19T21:44:51.308Z,7.70
2023-03-19T21:47:20.153Z,7.70
2023-03-19T21:49:49.469Z,7.70
2023-03-19T21:52:17.754Z,7.60
2023-03-19T21:54:44.571Z,7.50
2023-03-19T21:57:15.627Z,7.40
2023-03-19T21:59:45.643Z,7.40
2023-03-19T22:02:25.766Z,7.40
2023-03-19T22:04:54.801Z,7.40
2023-03-19T22:07:22.503Z,7.30
2023-03-19T22:12:32.870Z,7.20
2023-03-19T22:15:01.855Z,7.30
2023-03-19T22:17:37.518Z,7.20
2023-03-19T22:20:36.949Z,7.20
2023-03-19T22:25:54.467Z,7.10
2023-03-19T22:28:34.903Z,7.10
2023-03-19T22:31:09.341Z,7.10
2023-03-19T22:33:41.059Z,7.10
2023-03-19T22:36:09.127Z,7.10
2023-03-19T22:38:36.591Z,7.10
2023-03-19T22:41:03.272Z,7.00
2023-03-19T22:43:32.000Z,7.00
2023-03-19T22:46:05.762Z,7.00
2023-03-19T22:48:34.030Z,6.90
2023-03-19T22:51:01.561Z,7.00
2023-03-19T22:53:34.282Z,7.00
2023-03-19T22:56:01.093Z,6.90
2023-03-19T22:58:29.444Z,6.90
2023-03-19T23:00:56.744Z,6.80
2023-03-19T23:03:24.766Z,6.90
2023-03-19T23:05:58.853Z,6.90
2023-03-19T23:08:26.116Z,6.80
2023-03-19T23:10:53.505Z,6.80
2023-03-19T23:13:20.514Z,6.80
2023-03-19T23:15:48.243Z,6.70
2023-03-19T23:18:17.486Z,6.70
2023-03-19T23:20:44.813Z,6.70
2023-03-19T23:23:14.993Z,6.70
2023-03-19T23:25:42.344Z,6.70
2023-03-19T23:28:15.484Z,6.70
2023-03-19T23:30:42.168Z,6.70
2023-03-19T23:33:10.473Z,6.70
2023-03-19T23:35:37.445Z,6.70
2023-03-19T23:38:04.393Z,6.70
2023-03-19T23:40:33.215Z,6.70
2023-03-19T23:43:00.237Z,6.80
2023-03-19T23:45:27.545Z,6.70
2023-03-19T23:47:55.467Z,6.70
2023-03-19T23:50:23.186Z,6.70
2023-03-19T23:52:50.432Z,6.70
2023-03-19T23:55:17.204Z,6.60
2023-03-19T23:57:44.638Z,6.60
